Time;durP1;ratioP1;P1;durP2;ratioP2;P2;SDS_P1;SDS_P2;PMS_P1;PMS_P2;Temp;Humidity;BMP_temperature;BMP_pressure;BME280_temperature;BME280_humidity;BME280_pressure;Samples;Min_cycle;Max_cycle;Signal;HPM_P1;HPM_P2
2022/06/05 04:00:13;;;;;;;12.00;11.20;;;19.60;99.90;;;;;;6121035;23;20409;31
2022/06/05 04:02:40;;;;;;;13.10;12.10;;;19.70;99.90;;;;;;4994332;28;20499;-62
2022/06/05 04:05:09;;;;;;;13.10;12.20;;;19.70;99.90;;;;;;4995786;28;20458;-63
2022/06/05 04:07:36;;;;;;;14.83;13.80;;;19.70;99.90;;;;;;4995435;28;20453;-62
2022/06/05 04:10:02;;;;;;;15.20;14.20;;;19.70;99.90;;;;;;4995724;28;20460;-63
2022/06/05 04:12:29;;;;;;;15.43;14.13;;;19.70;99.90;;;;;;4995423;28;20478;-63
2022/06/05 04:14:56;;;;;;;15.20;14.10;;;19.60;99.90;;;;;;4995059;28;20941;-63
2022/06/05 04:17:24;;;;;;;16.60;15.23;;;19.60;99.90;;;;;;4995427;28;20458;-64
2022/06/05 04:19:52;;;;;;;14.70;13.70;;;19.60;99.90;;;;;;4995408;28;20442;-63
2022/06/05 04:22:19;;;;;;;16.17;14.87;;;19.60;99.90;;;;;;4994946;28;20999;-63
2022/06/05 04:24:46;;;;;;;16.07;14.70;;;19.60;99.90;;;;;;4995231;28;20796;-63
2022/06/05 04:27:13;;;;;;;17.47;16.20;;;19.50;99.90;;;;;;4995289;28;20454;-63
2022/06/05 04:29:40;;;;;;;15.40;14.20;;;19.50;99.90;;;;;;4995187;28;20461;-63
2022/06/05 04:32:07;;;;;;;19.33;17.93;;;19.40;99.90;;;;;;4995252;28;20478;-63
2022/06/05 04:34:36;;;;;;;19.00;17.30;;;19.40;99.90;;;;;;4995809;28;20935;-63
2022/06/05 04:37:04;;;;;;;18.90;17.20;;;19.30;99.90;;;;;;4995806;28;20936;-63
2022/06/05 04:39:31;;;;;;;18.00;16.40;;;19.20;99.90;;;;;;4995100;28;20493;-63
2022/06/05 04:41:58;;;;;;;19.07;17.67;;;19.20;99.90;;;;;;4994877;28;20478;-63
2022/06/05 04:44:24;;;;;;;19.27;17.77;;;19.10;99.90;;;;;;4994961;28;20450;-63
2022/06/05 04:46:53;;;;;;;19.10;17.63;;;19.10;99.90;;;;;;4994543;28;20454;-63
2022/06/05 04:49:20;;;;;;;19.27;17.77;;;19.10;99.90;;;;;;4994554;28;20959;-63
2022/06/05 04:51:48;;;;;;;18.13;16.80;;;19.10;99.90;;;;;;4994662;28;20550;-63
2022/06/05 04:54:16;;;;;;;19.53;18.03;;;19.10;99.90;;;;;;4994596;28;20837;-63
2022/06/05 04:56:44;;;;;;;17.43;16.23;;;19.10;99.90;;;;;;4994686;28;20460;-63
2022/06/05 04:59:11;;;;;;;19.57;18.07;;;19.20;99.90;;;;;;4994628;28;20847;-63
2022/06/05 05:01:39;;;;;;;18.10;16.80;;;19.20;99.90;;;;;;4994197;28;20481;-63
2022/06/05 05:04:11;;;;;;;17.70;16.10;;;19.20;99.90;;;;;;4994585;28;20450;-63
2022/06/05 05:06:39;;;;;;;18.87;17.27;;;19.20;99.90;;;;;;4994579;28;20492;-63
2022/06/05 05:09:08;;;;;;;20.10;18.50;;;19.20;99.90;;;;;;4994526;28;20458;-63
2022/06/05 05:11:36;;;;;;;20.80;19.13;;;19.20;99.90;;;;;;4994400;28;20481;-63
2022/06/05 05:14:02;;;;;;;21.30;19.43;;;19.20;99.90;;;;;;4994339;28;20512;-63
2022/06/05 05:16:31;;;;;;;21.80;20.10;;;19.20;99.90;;;;;;4994505;28;20454;-63
2022/06/05 05:18:58;;;;;;;22.57;20.43;;;19.10;99.90;;;;;;4993578;28;20454;-63
2022/06/05 05:21:26;;;;;;;22.40;20.57;;;19.10;99.90;;;;;;4994257;28;20477;-63
2022/06/05 05:23:54;;;;;;;23.20;21.40;;;19.00;99.90;;;;;;4994242;28;20454;-63
2022/06/05 05:26:25;;;;;;;22.67;20.77;;;18.90;99.90;;;;;;4994302;28;20476;-63
2022/06/05 05:28:52;;;;;;;23.03;20.93;;;18.90;99.90;;;;;;4994370;28;20445;-63
2022/06/05 05:31:20;;;;;;;22.87;20.87;;;18.90;99.90;;;;;;4994291;28;20481;-63
2022/06/05 05:33:49;;;;;;;23.27;21.27;;;18.80;99.90;;;;;;4994165;28;20477;-63
2022/06/05 05:36:17;;;;;;;23.73;21.80;;;18.80;99.90;;;;;;4994245;28;20454;-63
2022/06/05 05:42:04;;;;;;;23.50;21.63;;;18.80;99.90;;;;;;4994483;28;20458;-63
2022/06/05 05:44:17;;;;;;;23.73;21.73;;;18.80;99.90;;;;;;4993852;28;20529;-63
2022/06/05 05:46:44;;;;;;;23.63;21.40;;;18.80;99.90;;;;;;4994166;28;20458;-63
2022/06/05 05:49:12;;;;;;;22.73;20.87;;;18.80;99.90;;;;;;4993850;28;20511;-63
2022/06/05 05:51:39;;;;;;;22.97;21.20;;;18.80;99.90;;;;;;4994360;28;20474;-63
2022/06/05 05:54:06;;;;;;;25.60;23.00;;;18.80;99.90;;;;;;4993932;28;20954;-62
2022/06/05 05:56:34;;;;;;;26.47;24.43;;;18.60;99.90;;;;;;4994338;28;20453;-63
2022/06/05 05:59:01;;;;;;;24.53;22.53;;;18.60;99.90;;;;;;4994904;28;20793;-62
2022/06/05 06:01:28;;;;;;;25.20;23.00;;;18.50;99.90;;;;;;4993657;28;20902;-62
2022/06/05 06:03:55;;;;;;;28.50;23.37;;;18.50;99.90;;;;;;4993710;28;20964;-62
2022/06/05 06:06:25;;;;;;;26.17;23.87;;;18.30;99.90;;;;;;4993886;28;20457;-63
2022/06/05 06:08:52;;;;;;;27.63;24.97;;;18.20;99.90;;;;;;4994058;28;20496;-62
2022/06/05 06:11:18;;;;;;;28.13;25.53;;;18.20;99.90;;;;;;4994172;28;20480;-63
2022/06/05 06:13:46;;;;;;;30.17;27.17;;;18.10;99.90;;;;;;4998551;28;21060;-63
2022/06/05 06:16:14;;;;;;;30.87;28.07;;;18.10;99.90;;;;;;4999740;28;20833;-63
2022/06/05 06:18:41;;;;;;;31.13;28.00;;;18.10;99.90;;;;;;4993950;28;20798;-63
2022/06/05 06:21:08;;;;;;;31.63;28.83;;;18.00;99.90;;;;;;4993763;28;20474;-62
2022/06/05 06:23:35;;;;;;;33.50;30.70;;;18.00;99.90;;;;;;4993439;28;20454;-62
2022/06/05 06:26:05;;;;;;;34.03;30.87;;;18.00;99.90;;;;;;4993798;28;20783;-62
2022/06/05 06:28:31;;;;;;;36.67;33.03;;;18.00;99.90;;;;;;4993781;28;20465;-62
2022/06/05 06:31:03;;;;;;;34.80;31.60;;;18.00;99.90;;;;;;4997322;28;20484;-63
2022/06/05 06:33:31;;;;;;;33.40;30.40;;;17.90;99.90;;;;;;4996998;28;20489;-63
2022/06/05 06:36:01;;;;;;;34.70;31.50;;;17.90;99.90;;;;;;4996917;28;20952;-63
2022/06/05 06:38:28;;;;;;;33.90;30.60;;;17.80;99.90;;;;;;4997282;28;20465;-63
2022/06/05 06:40:59;;;;;;;32.97;29.77;;;17.80;99.90;;;;;;4997091;28;20520;-63
2022/06/05 06:43:26;;;;;;;30.83;27.80;;;17.80;99.90;;;;;;4997275;28;20438;-64
2022/06/05 06:45:52;;;;;;;29.10;26.50;;;17.80;99.90;;;;;;4996809;28;20453;-63
2022/06/05 06:48:21;;;;;;;26.77;24.20;;;17.80;99.90;;;;;;4996766;28;20457;-64
2022/06/05 06:50:47;;;;;;;24.83;22.93;;;17.90;99.90;;;;;;4996899;28;20478;-64
2022/06/05 06:53:15;;;;;;;24.23;22.20;;;17.90;99.90;;;;;;4996949;28;20480;-63
2022/06/05 06:55:41;;;;;;;22.23;20.43;;;17.90;99.90;;;;;;4996949;28;20514;-64
2022/06/05 06:58:08;;;;;;;19.70;18.10;;;17.90;99.90;;;;;;4996789;28;20454;-63
2022/06/05 07:00:35;;;;;;;19.67;17.93;;;18.00;99.90;;;;;;4996513;28;21012;-62
2022/06/05 07:03:02;;;;;;;19.67;17.10;;;18.00;99.90;;;;;;4996775;28;20465;-64
2022/06/05 07:05:30;;;;;;;17.97;16.47;;;18.00;99.90;;;;;;4996765;28;20802;-64
2022/06/05 07:07:56;;;;;;;18.17;16.47;;;18.00;99.90;;;;;;4996720;28;20458;-64
2022/06/05 07:10:23;;;;;;;17.23;15.73;;;18.10;99.90;;;;;;4996439;28;20446;-63
2022/06/05 07:12:50;;;;;;;16.20;14.57;;;18.10;99.90;;;;;;4996550;28;20458;-64
2022/06/05 07:15:17;;;;;;;14.60;13.40;;;18.10;99.90;;;;;;4995951;28;20837;-64
2022/06/05 07:17:44;;;;;;;15.53;13.93;;;18.10;99.90;;;;;;4996311;28;20469;-64
2022/06/05 07:20:11;;;;;;;15.97;14.60;;;18.00;99.90;;;;;;4996180;28;20453;-64
2022/06/05 07:22:39;;;;;;;14.50;13.40;;;18.00;99.90;;;;;;4996011;28;21016;-64
2022/06/05 07:25:07;;;;;;;19.93;14.63;;;18.00;99.90;;;;;;4996391;28;20568;-64
2022/06/05 07:27:34;;;;;;;14.60;13.37;;;18.00;99.90;;;;;;4996333;28;20811;-64
2022/06/05 07:30:01;;;;;;;14.03;13.03;;;17.90;99.90;;;;;;4995949;28;20972;-64
2022/06/05 07:32:27;;;;;;;14.30;13.20;;;17.90;99.90;;;;;;4996129;28;20474;-62
2022/06/05 07:34:54;;;;;;;14.77;13.53;;;17.90;99.90;;;;;;4996048;28;20473;-62
2022/06/05 07:37:21;;;;;;;14.40;13.40;;;18.00;99.90;;;;;;4996090;28;20458;-62
2022/06/05 07:39:49;;;;;;;15.10;13.73;;;18.00;99.90;;;;;;4996087;28;20465;-62
2022/06/05 07:42:16;;;;;;;14.80;13.70;;;18.00;99.90;;;;;;4994814;28;20477;-62
2022/06/05 07:44:42;;;;;;;13.73;12.63;;;18.00;99.90;;;;;;4995935;28;20453;-62
2022/06/05 07:47:09;;;;;;;12.73;11.53;;;18.10;99.90;;;;;;4995977;28;20462;-62
2022/06/05 07:49:39;;;;;;;11.87;10.93;;;18.10;99.90;;;;;;4995914;28;20469;-63
2022/06/05 07:54:52;;;;;;;11.70;10.80;;;18.20;99.90;;;;;;4995765;28;21002;-63
2022/06/05 07:57:19;;;;;;;12.20;11.30;;;18.20;99.90;;;;;;4995759;28;20453;-63
2022/06/05 07:59:49;;;;;;;13.20;12.10;;;18.10;99.90;;;;;;4995719;28;20493;-63
2022/06/05 08:02:19;;;;;;;10.73;9.97;;;18.20;99.90;;;;;;4995141;28;20592;-63
2022/06/05 08:04:48;;;;;;;10.33;9.53;;;18.20;99.90;;;;;;4995068;28;20956;-63
2022/06/05 08:07:18;;;;;;;9.43;8.73;;;18.20;99.90;;;;;;4995419;28;20450;-63
2022/06/05 08:09:44;;;;;;;8.57;7.77;;;18.20;99.90;;;;;;4995324;28;20465;-63
2022/06/05 08:12:15;;;;;;;7.50;6.90;;;18.20;99.90;;;;;;4995280;28;20480;-63
2022/06/05 08:14:43;;;;;;;7.63;6.90;;;18.20;99.90;;;;;;4995219;28;20470;-63
2022/06/05 08:17:13;;;;;;;7.10;6.50;;;18.20;99.90;;;;;;4995234;28;20536;-63
2022/06/05 08:19:41;;;;;;;10.40;6.90;;;18.20;99.90;;;;;;4995063;28;20508;-63
2022/06/05 08:22:09;;;;;;;6.40;5.90;;;18.30;99.90;;;;;;4995216;28;20477;-63
2022/06/05 08:24:36;;;;;;;7.00;6.30;;;18.30;99.90;;;;;;4995257;28;20477;-63
2022/06/05 08:27:03;;;;;;;6.93;6.37;;;18.40;99.90;;;;;;4995268;28;20454;-63
2022/06/05 08:29:31;;;;;;;6.67;6.07;;;18.60;99.90;;;;;;4995915;28;20458;-63
2022/06/05 08:31:58;;;;;;;9.27;6.53;;;18.70;99.90;;;;;;4995057;28;20482;-63
2022/06/05 08:34:25;;;;;;;25.17;22.47;;;18.90;99.90;;;;;;4994657;28;20474;-63
2022/06/05 08:41:26;;;;;;;13.27;5.80;;;19.00;99.90;;;;;;4995012;28;20520;-63
2022/06/05 08:42:32;;;;;;;6.13;5.27;;;19.40;99.90;;;;;;4994716;28;20460;-63
2022/06/05 08:45:10;;;;;;;6.33;4.73;;;19.60;99.90;;;;;;4994893;28;20437;-63
2022/06/05 08:47:43;;;;;;;4.80;4.30;;;19.80;99.90;;;;;;4994812;28;20438;-63
2022/06/05 08:50:18;;;;;;;4.93;4.00;;;19.90;99.90;;;;;;4994709;28;20438;-63
2022/06/05 08:52:51;;;;;;;5.53;3.63;;;20.10;99.90;;;;;;4994656;28;20441;-63
2022/06/05 08:55:26;;;;;;;4.17;3.30;;;20.30;99.90;;;;;;4994331;28;20469;-63
2022/06/05 08:57:57;;;;;;;3.77;3.37;;;20.40;99.90;;;;;;4994649;28;20446;-63
2022/06/05 09:00:32;;;;;;;3.47;3.27;;;20.50;99.90;;;;;;4994384;28;20445;-63
2022/06/05 09:03:03;;;;;;;3.00;2.80;;;20.70;99.90;;;;;;4994579;28;20553;-64
2022/06/05 09:05:35;;;;;;;2.87;2.67;;;20.70;99.90;;;;;;4994207;28;20974;-63
2022/06/05 09:08:05;;;;;;;3.17;2.70;;;20.80;99.90;;;;;;4994480;28;20445;-63
2022/06/05 09:10:35;;;;;;;2.90;2.70;;;20.70;99.90;;;;;;4994557;28;20480;-63
2022/06/05 09:13:06;;;;;;;2.50;2.30;;;20.70;99.90;;;;;;4995236;28;20438;-63
2022/06/05 09:15:39;;;;;;;2.80;2.57;;;20.80;99.90;;;;;;4994879;28;20465;-63
2022/06/05 09:18:14;;;;;;;1.90;1.80;;;20.90;99.90;;;;;;4994382;28;20449;-64
2022/06/05 09:20:49;;;;;;;2.20;2.10;;;21.00;99.90;;;;;;4994115;28;20496;-64
2022/06/05 09:23:28;;;;;;;3.07;1.83;;;21.10;99.90;;;;;;4994701;28;20442;-63
2022/06/05 09:26:02;;;;;;;2.30;2.10;;;21.10;99.90;;;;;;4994252;28;20438;-63
2022/06/05 09:28:52;;;;;;;1.97;1.87;;;21.20;99.90;;;;;;4994193;28;20492;-63
2022/06/05 09:31:51;;;;;;;2.17;2.07;;;21.20;99.90;;;;;;4994090;28;20478;-63
2022/06/05 09:34:21;;;;;;;2.10;2.00;;;21.20;99.90;;;;;;4994253;28;20469;-63
2022/06/05 09:36:59;;;;;;;2.97;2.63;;;21.40;99.90;;;;;;4993852;28;20454;-63
2022/06/05 09:39:30;;;;;;;3.30;3.00;;;21.60;99.90;;;;;;4993945;28;20442;-63
2022/06/05 09:42:13;;;;;;;3.70;2.00;;;21.80;99.90;;;;;;4994012;28;20473;-63
2022/06/05 09:44:50;;;;;;;2.70;2.50;;;21.90;99.90;;;;;;4993950;28;20781;-63
2022/06/05 09:47:24;;;;;;;2.30;2.10;;;22.00;99.90;;;;;;4993764;28;20446;-64
2022/06/05 09:49:57;;;;;;;3.43;2.13;;;22.50;99.90;;;;;;4993916;28;20441;-63
2022/06/05 09:52:26;;;;;;;2.80;2.63;;;23.40;99.90;;;;;;4994083;28;20484;-63
2022/06/05 09:55:01;;;;;;;3.87;2.77;;;23.90;99.90;;;;;;4994101;28;20588;-63
2022/06/05 10:00:32;;;;;;;2.67;2.20;;;24.50;99.90;;;;;;4994121;28;20927;-64
2022/06/05 10:03:04;;;;;;;3.53;3.23;;;24.30;99.90;;;;;;4997554;28;20481;-64
2022/06/05 10:05:34;;;;;;;2.20;2.10;;;24.30;99.90;;;;;;5004419;28;20505;-64
2022/06/05 10:08:06;;;;;;;7.23;6.70;;;24.10;99.90;;;;;;4999758;28;20456;-63
2022/06/05 10:10:37;;;;;;;1.80;1.70;;;24.10;99.90;;;;;;4998234;28;20540;-64
2022/06/05 10:13:11;;;;;;;1.60;1.50;;;23.90;99.90;;;;;;4997926;28;20442;-64
2022/06/05 10:15:45;;;;;;;5.77;2.00;;;24.10;99.90;;;;;;4997691;28;20466;-64
2022/06/05 10:18:18;;;;;;;4.10;2.00;;;24.50;99.90;;;;;;4997797;28;20441;-64
2022/06/05 10:20:56;;;;;;;2.00;1.90;;;25.40;99.90;;;;;;4997459;28;21011;-64
2022/06/05 10:23:44;;;;;;;2.97;1.60;;;25.90;99.90;;;;;;4997494;28;20815;-64
2022/06/05 10:26:30;;;;;;;4.20;1.77;;;26.00;99.90;;;;;;4997517;28;20438;-64
2022/06/05 10:29:15;;;;;;;1.90;1.80;;;26.10;99.90;;;;;;4997595;28;20539;-64
2022/06/05 10:31:53;;;;;;;2.50;1.80;;;26.10;99.90;;;;;;4996886;28;20987;-64
2022/06/05 10:34:28;;;;;;;2.23;2.13;;;26.40;99.90;;;;;;4997426;28;20477;-64
2022/06/05 10:37:02;;;;;;;2.20;2.00;;;26.50;99.90;;;;;;4997369;28;20449;-64
2022/06/05 10:39:37;;;;;;;2.10;2.00;;;26.40;99.90;;;;;;4997701;28;20442;-64
2022/06/05 10:42:17;;;;;;;2.10;1.90;;;26.20;99.90;;;;;;4997159;28;20473;-64
2022/06/05 10:44:54;;;;;;;2.33;2.23;;;25.80;99.90;;;;;;4997262;28;20442;-65
2022/06/05 10:47:32;;;;;;;3.07;2.23;;;25.40;99.90;;;;;;4997185;28;20441;-64
2022/06/05 10:50:10;;;;;;;2.20;2.10;;;24.70;99.90;;;;;;4997120;28;20441;-64
2022/06/05 10:52:44;;;;;;;6.27;5.80;;;24.20;99.90;;;;;;4997194;28;20564;-65
2022/06/05 10:55:35;;;;;;;4.00;3.23;;;23.90;99.90;;;;;;4996998;28;20468;-65
2022/06/05 10:58:11;;;;;;;2.43;2.33;;;23.50;99.90;;;;;;4996994;28;20438;-65
2022/06/05 11:00:56;;;;;;;4.00;2.70;;;23.30;99.90;;;;;;4996623;28;20489;-65
2022/06/05 11:03:29;;;;;;;4.50;2.67;;;23.00;99.90;;;;;;4996865;28;20489;-64
2022/06/05 11:06:19;;;;;;;5.50;3.13;;;22.90;99.90;;;;;;4996808;28;20438;-64
2022/06/05 11:09:00;;;;;;;5.00;3.00;;;22.80;99.90;;;;;;4996429;28;20450;-65
2022/06/05 11:14:26;;;;;;;3.80;3.50;;;22.50;99.90;;;;;;4996332;28;20916;-64
2022/06/05 11:16:57;;;;;;;4.10;3.40;;;22.30;99.90;;;;;;4995554;28;20445;-64
2022/06/05 11:19:34;;;;;;;3.90;3.57;;;22.20;99.90;;;;;;4996571;28;20442;-65
2022/06/05 11:22:07;;;;;;;3.47;3.17;;;22.10;99.90;;;;;;4996461;28;20481;-66
2022/06/05 11:24:42;;;;;;;3.63;3.30;;;22.10;99.90;;;;;;4996478;28;20481;-65
2022/06/05 11:27:13;;;;;;;5.70;3.50;;;22.10;99.90;;;;;;4996646;28;20449;-65
2022/06/05 11:29:50;;;;;;;4.43;3.43;;;22.10;99.90;;;;;;4996526;28;20438;-64
2022/06/05 11:32:28;;;;;;;6.73;3.50;;;22.20;99.90;;;;;;4996105;28;20473;-65
2022/06/05 11:35:00;;;;;;;5.23;3.77;;;22.20;99.90;;;;;;4996401;28;20465;-65
2022/06/05 11:37:55;;;;;;;5.67;5.20;;;22.30;99.90;;;;;;4996343;28;20824;-66
2022/06/05 11:40:33;;;;;;;6.13;4.33;;;22.40;99.90;;;;;;4992965;28;20456;-64
2022/06/05 11:43:22;;;;;;;5.33;4.23;;;22.40;99.90;;;;;;4996212;28;20468;-64
2022/06/05 11:45:56;;;;;;;4.70;4.10;;;22.50;99.90;;;;;;4996010;28;20464;-65
2022/06/05 11:48:30;;;;;;;3.97;3.70;;;22.40;99.90;;;;;;4995927;28;20438;-64
2022/06/05 11:51:03;;;;;;;5.80;3.87;;;22.40;99.90;;;;;;4995737;28;20480;-64
2022/06/05 11:53:40;;;;;;;5.57;3.50;;;22.20;99.90;;;;;;4996082;28;20442;-64
2022/06/05 11:56:36;;;;;;;3.60;3.40;;;22.30;99.90;;;;;;4996122;28;20469;-64
2022/06/05 11:59:14;;;;;;;3.90;3.47;;;22.40;99.90;;;;;;4995684;28;20487;-64
2022/06/05 12:01:47;;;;;;;4.47;3.47;;;22.60;99.90;;;;;;4995157;28;20496;-64
2022/06/05 12:04:21;;;;;;;4.83;3.73;;;22.90;99.90;;;;;;4995527;28;20442;-64
2022/06/05 12:06:51;;;;;;;3.93;3.57;;;23.20;99.90;;;;;;4995611;28;20440;-64
2022/06/05 12:09:22;;;;;;;3.50;3.30;;;23.60;99.90;;;;;;4995547;28;20439;-64
2022/06/05 12:11:54;;;;;;;6.50;3.20;;;23.90;99.90;;;;;;4995374;28;20477;-64
2022/06/05 12:14:25;;;;;;;3.50;3.20;;;24.20;99.90;;;;;;4995449;28;20501;-65
2022/06/05 12:17:02;;;;;;;3.40;3.10;;;24.60;99.90;;;;;;4995257;28;20462;-64
2022/06/05 12:19:45;;;;;;;5.30;3.20;;;25.00;99.90;;;;;;4995476;28;20462;-64
2022/06/05 12:22:18;;;;;;;5.80;3.97;;;25.40;99.90;;;;;;4995256;28;20536;-64
2022/06/05 12:24:52;;;;;;;4.73;3.50;;;25.50;99.90;;;;;;4995049;28;20449;-63
2022/06/05 12:27:20;;;;;;;3.20;3.00;;;25.60;99.90;;;;;;4995078;28;20500;-63
2022/06/05 12:29:53;;;;;;;13.50;12.40;;;25.70;99.90;;;;;;4995114;28;20456;-63
2022/06/05 12:32:29;;;;;;;3.53;3.23;;;25.50;99.90;;;;;;4995201;28;20477;-63
2022/06/05 12:35:01;;;;;;;3.83;3.53;;;25.50;99.90;;;;;;4994796;28;20449;-63
2022/06/05 12:37:36;;;;;;;6.43;3.33;;;25.50;99.90;;;;;;4995166;28;20442;-63
2022/06/05 12:40:14;;;;;;;3.03;2.83;;;25.50;99.90;;;;;;4995123;28;20441;-63
2022/06/05 12:42:48;;;;;;;3.30;2.83;;;25.50;99.90;;;;;;4995572;28;20446;-63
2022/06/05 12:45:20;;;;;;;2.80;2.70;;;25.30;99.90;;;;;;4995011;28;20438;-63
2022/06/05 12:48:04;;;;;;;4.33;3.10;;;25.30;99.90;;;;;;4994791;28;20474;-62
2022/06/05 12:50:47;;;;;;;6.53;2.90;;;25.00;99.90;;;;;;4994694;28;20807;-62
2022/06/05 12:53:24;;;;;;;3.50;3.20;;;25.10;99.90;;;;;;4994462;28;20438;-62
2022/06/05 12:55:57;;;;;;;3.93;2.60;;;25.10;99.90;;;;;;4994612;28;20520;-62
2022/06/05 12:58:34;;;;;;;4.00;3.43;;;25.00;99.90;;;;;;4994435;28;20446;-62
2022/06/05 13:01:06;;;;;;;3.30;2.83;;;25.00;99.90;;;;;;4994501;28;20488;-62
2022/06/05 13:03:41;;;;;;;4.77;3.13;;;25.20;99.90;;;;;;4994211;28;20808;-62
2022/06/05 13:06:14;;;;;;;4.07;2.67;;;25.30;99.90;;;;;;4994485;28;20441;-62
2022/06/05 13:08:47;;;;;;;3.83;2.90;;;25.60;99.90;;;;;;4995192;28;20850;-62
2022/06/05 13:11:24;;;;;;;3.33;2.93;;;25.70;99.90;;;;;;4995202;28;20477;-63
2022/06/05 13:13:59;;;;;;;5.47;2.90;;;25.90;99.90;;;;;;4994410;28;20449;-62
2022/06/05 13:16:33;;;;;;;3.20;2.30;;;26.00;99.90;;;;;;4994196;28;20465;-62
2022/06/05 13:19:20;;;;;;;2.73;2.50;;;26.20;99.90;;;;;;4993964;28;20902;-62
2022/06/05 13:21:55;;;;;;;4.00;2.77;;;26.20;99.90;;;;;;4994282;28;20478;-62
2022/06/05 13:24:31;;;;;;;3.40;2.33;;;26.30;99.90;;;;;;4994318;28;20476;-62
2022/06/05 13:27:10;;;;;;;3.57;2.13;;;26.50;99.90;;;;;;4994438;28;20441;-62
2022/06/05 13:29:40;;;;;;;10.13;3.17;;;26.50;99.90;;;;;;4994335;28;20449;-62
2022/06/05 13:32:13;;;;;;;9.83;3.20;;;26.60;99.90;;;;;;4994234;28;20481;-62
2022/06/05 13:34:45;;;;;;;3.83;2.90;;;26.60;99.90;;;;;;4994245;28;20450;-62
2022/06/05 13:37:19;;;;;;;3.63;2.73;;;26.70;99.90;;;;;;4993855;28;20972;-63
2022/06/05 13:40:12;;;;;;;2.97;2.40;;;26.60;99.90;;;;;;4993518;28;20508;-63
2022/06/05 13:42:43;;;;;;;3.00;2.13;;;26.60;99.90;;;;;;4994625;28;20474;-63
2022/06/05 13:45:26;;;;;;;2.70;2.50;;;26.60;99.90;;;;;;5000052;28;20470;-63
2022/06/05 13:47:58;;;;;;;2.10;2.00;;;26.50;99.90;;;;;;5000693;28;20442;-63
2022/06/05 13:50:34;;;;;;;2.73;2.50;;;26.50;99.90;;;;;;4993759;28;20804;-63
2022/06/05 13:53:10;;;;;;;1.50;1.33;;;26.60;99.90;;;;;;4994016;28;20445;-63
2022/06/05 13:55:41;;;;;;;1.70;1.60;;;26.40;99.90;;;;;;4993618;28;20964;-63
2022/06/05 13:58:26;;;;;;;1.50;1.20;;;26.20;99.90;;;;;;4993696;28;21017;-63
2022/06/05 14:00:57;;;;;;;2.20;1.17;;;26.00;99.90;;;;;;4993676;28;20539;-63
2022/06/05 14:03:36;;;;;;;2.20;1.50;;;25.70;99.90;;;;;;4994505;28;20496;-62
2022/06/05 14:06:07;;;;;;;3.83;2.30;;;25.40;99.90;;;;;;4993947;28;20444;-63
2022/06/05 14:08:47;;;;;;;3.73;1.57;;;25.10;99.90;;;;;;4993914;28;20539;-62
2022/06/05 14:11:14;;;;;;;2.23;1.70;;;24.90;99.90;;;;;;4993674;28;20474;-62
2022/06/05 14:13:44;;;;;;;3.00;1.80;;;24.60;99.90;;;;;;4994873;28;20453;-63
2022/06/05 14:16:13;;;;;;;2.50;1.97;;;24.40;99.90;;;;;;4994483;28;20969;-63
2022/06/05 14:18:43;;;;;;;1.70;1.43;;;24.10;99.90;;;;;;4993704;28;20465;-63
2022/06/05 14:21:20;;;;;;;2.50;2.10;;;23.90;99.90;;;;;;4993566;28;21020;-63
2022/06/05 14:23:48;;;;;;;1.63;1.53;;;23.70;99.90;;;;;;4994394;28;20442;-63
2022/06/05 14:26:17;;;;;;;1.90;1.80;;;23.60;99.90;;;;;;4994339;28;20963;-63
2022/06/05 14:28:47;;;;;;;2.07;1.80;;;23.40;99.90;;;;;;4994581;28;20987;-63
2022/06/05 14:31:18;;;;;;;1.60;1.50;;;23.40;99.90;;;;;;4995365;28;20488;-63
2022/06/05 14:33:53;;;;;;;2.27;1.50;;;23.30;99.90;;;;;;4995508;28;20528;-62
2022/06/05 14:36:40;;;;;;;2.10;1.90;;;23.30;99.90;;;;;;4993447;28;20465;-62
2022/06/05 14:39:13;;;;;;;2.17;2.07;;;23.30;99.90;;;;;;4994513;28;20442;-62
2022/06/05 14:41:48;;;;;;;2.23;2.10;;;23.20;99.90;;;;;;4993798;28;20851;-62
2022/06/05 14:44:21;;;;;;;3.03;2.77;;;23.10;99.90;;;;;;4993511;28;20441;-62
2022/06/05 14:46:51;;;;;;;8.30;7.70;;;23.00;99.90;;;;;;4993540;28;20460;-62
2022/06/05 14:49:24;;;;;;;4.57;4.27;;;22.90;99.90;;;;;;4993128;28;20453;-62
2022/06/05 14:51:57;;;;;;;28.67;26.53;;;22.80;99.90;;;;;;4996875;28;20473;-62
2022/06/05 15:00:07;;;;;;;43.90;38.50;;;22.80;99.90;;;;;;4996642;28;20444;-61
2022/06/05 15:02:41;;;;;;;4.80;4.40;;;22.80;99.90;;;;;;4996904;28;21047;-62
2022/06/05 15:05:12;;;;;;;3.30;3.10;;;23.00;99.90;;;;;;4996703;28;20478;-63
2022/06/05 15:07:47;;;;;;;3.90;3.60;;;23.00;99.90;;;;;;4996688;28;20430;-63
2022/06/05 15:10:26;;;;;;;11.53;10.47;;;23.00;99.90;;;;;;4996613;28;20445;-62
2022/06/05 15:13:03;;;;;;;56.03;51.13;;;22.90;99.90;;;;;;4996349;28;20956;-62
2022/06/05 15:15:33;;;;;;;3.23;3.03;;;23.00;99.90;;;;;;4996247;28;20445;-62
2022/06/05 15:17:59;;;;;;;4.60;2.90;;;22.90;99.90;;;;;;4996364;28;20461;-62
2022/06/05 15:20:34;;;;;;;2.90;2.70;;;22.90;99.90;;;;;;4996307;28;20457;-62
2022/06/05 15:23:10;;;;;;;4.33;3.00;;;22.90;99.90;;;;;;4996370;28;20448;-62
2022/06/05 15:25:43;;;;;;;3.90;3.50;;;22.80;99.90;;;;;;4996325;28;20648;-62
2022/06/05 15:28:16;;;;;;;16.23;14.77;;;22.60;99.90;;;;;;4996791;28;20442;-62
2022/06/05 15:30:49;;;;;;;6.20;3.73;;;22.30;99.90;;;;;;4996636;28;20535;-61
2022/06/05 15:33:32;;;;;;;8.73;4.30;;;21.90;99.90;;;;;;4996361;28;20438;-61
2022/06/05 15:36:07;;;;;;;7.77;4.30;;;21.20;99.90;;;;;;4995627;28;20995;-62
2022/06/05 15:38:53;;;;;;;16.17;14.50;;;20.70;99.90;;;;;;4996127;28;20901;-62
2022/06/05 15:41:47;;;;;;;3.83;3.53;;;20.40;99.90;;;;;;4995620;28;20572;-61
2022/06/05 15:44:25;;;;;;;12.73;4.90;;;20.30;99.90;;;;;;4995616;28;20953;-61
2022/06/05 15:47:03;;;;;;;6.50;3.60;;;20.10;99.90;;;;;;4995874;28;20434;-61
2022/06/05 15:49:46;;;;;;;5.80;3.80;;;20.00;99.90;;;;;;4995498;28;20935;-61
2022/06/05 15:52:40;;;;;;;5.33;4.00;;;19.90;99.90;;;;;;4995416;28;20484;-62
2022/06/05 15:55:18;;;;;;;3.70;3.50;;;19.80;99.90;;;;;;4995645;28;20442;-61
2022/06/05 16:00:47;;;;;;;6.27;5.37;;;19.60;99.90;;;;;;4995200;28;20835;-61
2022/06/05 16:03:17;;;;;;;3.83;3.50;;;19.60;99.90;;;;;;4994794;28;20453;-62
2022/06/05 16:05:48;;;;;;;3.33;3.03;;;19.60;99.90;;;;;;4995355;28;20438;-61
2022/06/05 16:08:26;;;;;;;2.90;2.70;;;19.60;99.90;;;;;;4995568;28;20470;-61
2022/06/05 16:10:56;;;;;;;3.13;2.83;;;19.50;99.90;;;;;;4995052;28;20843;-61
2022/06/05 16:13:24;;;;;;;2.90;2.60;;;19.50;99.90;;;;;;4995585;28;20438;-61
2022/06/05 16:15:58;;;;;;;2.90;2.80;;;19.50;99.90;;;;;;4995414;28;20461;-61
2022/06/05 16:18:36;;;;;;;3.20;2.87;;;19.60;99.90;;;;;;4995599;28;20496;-61
2022/06/05 16:21:18;;;;;;;3.00;2.80;;;19.60;99.90;;;;;;4995340;28;20488;-61
2022/06/05 16:23:59;;;;;;;2.97;2.37;;;19.70;99.90;;;;;;4995120;28;20441;-62
2022/06/05 16:26:33;;;;;;;2.50;2.40;;;19.80;99.90;;;;;;4995231;28;20457;-62
2022/06/05 16:29:05;;;;;;;2.37;2.20;;;19.90;99.90;;;;;;4995351;28;20802;-62
2022/06/05 16:31:42;;;;;;;3.03;2.83;;;19.90;99.90;;;;;;4995065;28;20817;-61
2022/06/05 16:34:12;;;;;;;2.70;2.60;;;20.00;99.90;;;;;;4995322;28;20504;-61
2022/06/05 16:39:48;;;;;;;2.70;2.50;;;20.20;99.90;;;;;;4995466;28;20436;-61
2022/06/05 16:42:24;;;;;;;2.33;2.20;;;20.40;99.90;;;;;;4995175;28;20477;-61
2022/06/05 16:45:02;;;;;;;3.07;1.70;;;20.40;99.90;;;;;;4995393;28;20444;-62
2022/06/05 16:47:44;;;;;;;1.90;1.80;;;20.30;99.90;;;;;;4996287;28;20438;-62
2022/06/05 16:50:27;;;;;;;2.53;2.10;;;20.30;99.90;;;;;;4995092;28;20453;-62
2022/06/05 16:52:55;;;;;;;1.67;1.57;;;20.40;99.90;;;;;;4994926;28;20495;-62
2022/06/05 16:55:24;;;;;;;2.30;2.20;;;20.40;99.90;;;;;;4999937;28;20466;-62
2022/06/05 16:57:53;;;;;;;3.33;2.00;;;20.40;99.90;;;;;;4996997;28;20478;-62
2022/06/05 17:00:25;;;;;;;1.50;1.40;;;20.50;99.90;;;;;;4994491;28;20465;-62
2022/06/05 17:02:56;;;;;;;1.30;1.30;;;20.40;99.90;;;;;;4994702;28;20449;-62
2022/06/05 17:05:36;;;;;;;1.20;1.20;;;20.50;99.90;;;;;;4995554;28;20449;-62
2022/06/05 17:08:07;;;;;;;1.60;1.50;;;20.40;99.90;;;;;;4994969;28;20811;-62
2022/06/05 17:10:47;;;;;;;1.07;1.00;;;20.50;99.90;;;;;;4994767;28;20442;-63
2022/06/05 17:13:40;;;;;;;1.50;1.30;;;20.40;99.90;;;;;;4993987;28;20449;-63
2022/06/05 17:16:26;;;;;;;1.13;1.10;;;20.40;99.90;;;;;;4994450;28;20603;-62
2022/06/05 17:18:56;;;;;;;1.10;1.10;;;20.30;99.90;;;;;;4994088;28;20442;-63
2022/06/05 17:21:29;;;;;;;1.20;1.20;;;20.20;99.90;;;;;;4994489;28;20480;-63
2022/06/05 17:24:28;;;;;;;1.20;1.20;;;20.30;99.90;;;;;;4994361;28;20445;-64
2022/06/05 17:27:22;;;;;;;1.63;1.50;;;20.30;99.90;;;;;;4994510;28;20434;-63
2022/06/05 17:30:04;;;;;;;4.50;3.43;;;20.20;99.90;;;;;;4994332;28;20443;-63
2022/06/05 17:32:39;;;;;;;1.80;1.70;;;20.30;99.90;;;;;;4994163;28;20504;-63
2022/06/05 17:35:14;;;;;;;1.10;1.10;;;20.30;99.90;;;;;;4994022;28;20901;-64